ENY4010 KDFW-MMMY
Flight info
| Callsign | ENY4010 |
|---|---|
| Flight time | 1h 21m |
| Altitude | 38000 |
| Route | NELYN6 SAT DCT MILET DCT LRD DCT RUDMA DCT MTY |
| Aircraft | E170/M-SDE3GILORVW/S |
Departure
| Time | 2026-05-05 21:42 |
|---|---|
| Airport | Dallas Fort Worth International Airport (KDFW) |
Arrival
| Time | 2026-05-05 23:04 |
|---|---|
| Airport | Monterrey International Airport (MMMY) |
| Time | Latitude | Longitude | Altitude | Speed | Heading |
|---|---|---|---|---|---|
| 2026-05-05 21:24 | 32.90770 | -97.04298 | 593 ft | 0 kts | 181° |
| 2026-05-05 21:33 | 32.90773 | -97.04298 | 593 ft | 2 kts | 181° |
| 2026-05-05 21:33 | 32.90787 | -97.04298 | 593 ft | 2 kts | 181° |
| 2026-05-05 21:34 | 32.90802 | -97.04298 | 593 ft | 2 kts | 197° |
| 2026-05-05 21:34 | 32.90815 | -97.04287 | 592 ft | 2 kts | 234° |
| 2026-05-05 21:34 | 32.90819 | -97.04276 | 592 ft | 0 kts | 258° |
| 2026-05-05 21:34 | 32.90820 | -97.04267 | 592 ft | 0 kts | 262° |
| 2026-05-05 21:37 | 32.90817 | -97.04290 | 592 ft | 8 kts | 259° |
| 2026-05-05 21:37 | 32.90791 | -97.04401 | 593 ft | 17 kts | 254° |
| 2026-05-05 21:37 | 32.90815 | -97.04532 | 593 ft | 15 kts | 303° |
| 2026-05-05 21:37 | 32.90909 | -97.04594 | 591 ft | 17 kts | 359° |
| 2026-05-05 21:38 | 32.91005 | -97.04553 | 590 ft | 15 kts | 62° |
| 2026-05-05 21:38 | 32.91011 | -97.04425 | 589 ft | 17 kts | 91° |
| 2026-05-05 21:38 | 32.91010 | -97.04250 | 588 ft | 24 kts | 90° |
| 2026-05-05 21:38 | 32.91008 | -97.04037 | 587 ft | 27 kts | 91° |
| 2026-05-05 21:39 | 32.91008 | -97.03804 | 586 ft | 28 kts | 91° |
| 2026-05-05 21:39 | 32.91007 | -97.03587 | 585 ft | 24 kts | 92° |
| 2026-05-05 21:39 | 32.91007 | -97.03378 | 583 ft | 25 kts | 91° |
| 2026-05-05 21:39 | 32.91015 | -97.03215 | 579 ft | 15 kts | 48° |
| 2026-05-05 21:40 | 32.91128 | -97.03191 | 578 ft | 17 kts | 359° |
| 2026-05-05 21:40 | 32.91255 | -97.03196 | 576 ft | 19 kts | 357° |
| 2026-05-05 21:40 | 32.91389 | -97.03186 | 573 ft | 11 kts | 13° |
| 2026-05-05 21:40 | 32.91412 | -97.03097 | 571 ft | 13 kts | 90° |
| 2026-05-05 21:41 | 32.91405 | -97.02998 | 569 ft | 7 kts | 127° |
| 2026-05-05 21:41 | 32.91339 | -97.02989 | 570 ft | 25 kts | 182° |
| 2026-05-05 21:41 | 32.90949 | -97.02993 | 572 ft | 83 kts | 180° |
| 2026-05-05 21:41 | 32.90198 | -97.03001 | 572 ft | 130 kts | 182° |
| 2026-05-05 21:42 | 32.89207 | -97.03006 | 682 ft | 152 kts | 182° |
| 2026-05-05 21:42 | 32.88105 | -97.02998 | 1024 ft | 160 kts | 185° |
| 2026-05-05 21:42 | 32.86998 | -97.03062 | 1475 ft | 161 kts | 184° |
| 2026-05-05 21:42 | 32.85835 | -97.03056 | 1876 ft | 170 kts | 181° |
| 2026-05-05 21:43 | 32.84600 | -97.03013 | 2147 ft | 192 kts | 182° |
| 2026-05-05 21:43 | 32.83140 | -97.02987 | 2306 ft | 224 kts | 183° |
| 2026-05-05 21:43 | 32.81475 | -97.02975 | 2557 ft | 251 kts | 182° |
| 2026-05-05 21:43 | 32.79657 | -97.02972 | 2972 ft | 269 kts | 183° |
| 2026-05-05 21:44 | 32.77778 | -97.02977 | 3684 ft | 272 kts | 183° |
| 2026-05-05 21:44 | 32.75919 | -97.02986 | 4595 ft | 266 kts | 183° |
| 2026-05-05 21:44 | 32.74104 | -97.02994 | 5475 ft | 260 kts | 183° |
| 2026-05-05 21:44 | 32.72311 | -97.03008 | 6271 ft | 258 kts | 183° |
| 2026-05-05 21:45 | 32.70522 | -97.02832 | 6939 ft | 264 kts | 166° |
| 2026-05-05 21:45 | 32.68814 | -97.02012 | 7550 ft | 270 kts | 162° |
| 2026-05-05 21:45 | 32.67070 | -97.01122 | 8137 ft | 274 kts | 161° |
| 2026-05-05 21:45 | 32.65312 | -97.00225 | 8747 ft | 277 kts | 162° |
| 2026-05-05 21:46 | 32.63544 | -96.99320 | 9296 ft | 282 kts | 162° |
| 2026-05-05 21:46 | 32.61696 | -96.98490 | 9749 ft | 283 kts | 177° |
| 2026-05-05 21:46 | 32.59811 | -96.98727 | 10243 ft | 272 kts | 207° |
| 2026-05-05 21:46 | 32.58108 | -96.99713 | 10747 ft | 275 kts | 212° |
| 2026-05-05 21:47 | 32.56396 | -97.00777 | 11100 ft | 285 kts | 212° |
| 2026-05-05 21:47 | 32.54598 | -97.01914 | 11442 ft | 296 kts | 213° |
| 2026-05-05 21:47 | 32.52760 | -97.03085 | 11745 ft | 306 kts | 213° |
| 2026-05-05 21:47 | 32.50863 | -97.04297 | 12127 ft | 313 kts | 213° |
| 2026-05-05 21:48 | 32.48917 | -97.05542 | 12518 ft | 320 kts | 213° |
| 2026-05-05 21:48 | 32.46965 | -97.06792 | 12994 ft | 322 kts | 213° |
| 2026-05-05 21:48 | 32.44980 | -97.08060 | 13517 ft | 324 kts | 214° |
| 2026-05-05 21:48 | 32.43006 | -97.09324 | 14074 ft | 323 kts | 214° |
| 2026-05-05 21:49 | 32.41037 | -97.10583 | 14584 ft | 324 kts | 214° |
| 2026-05-05 21:49 | 32.39048 | -97.11855 | 15064 ft | 326 kts | 213° |
| 2026-05-05 21:49 | 32.37025 | -97.13146 | 15495 ft | 330 kts | 214° |
| 2026-05-05 21:49 | 32.35008 | -97.14433 | 15961 ft | 332 kts | 214° |
| 2026-05-05 21:50 | 32.32972 | -97.15733 | 16435 ft | 334 kts | 214° |
| 2026-05-05 21:50 | 32.30944 | -97.17027 | 16878 ft | 336 kts | 214° |
| 2026-05-05 21:50 | 32.28854 | -97.18298 | 17337 ft | 341 kts | 206° |
| 2026-05-05 21:50 | 32.26494 | -97.18849 | 17757 ft | 353 kts | 194° |
| 2026-05-05 21:51 | 32.24039 | -97.19186 | 18170 ft | 355 kts | 194° |
| 2026-05-05 21:51 | 32.21578 | -97.19519 | 18572 ft | 357 kts | 195° |
| 2026-05-05 21:51 | 32.19087 | -97.19855 | 18952 ft | 360 kts | 195° |
| 2026-05-05 21:51 | 32.16615 | -97.20186 | 19313 ft | 362 kts | 195° |
| 2026-05-05 21:52 | 32.11553 | -97.20865 | 20028 ft | 367 kts | 195° |
| 2026-05-05 21:52 | 32.09002 | -97.21206 | 20336 ft | 371 kts | 196° |
| 2026-05-05 21:52 | 32.06455 | -97.21546 | 20699 ft | 372 kts | 196° |
| 2026-05-05 21:53 | 32.03873 | -97.21891 | 21060 ft | 373 kts | 197° |
| 2026-05-05 21:53 | 32.01279 | -97.22238 | 21425 ft | 374 kts | 196° |
| 2026-05-05 21:53 | 31.98686 | -97.22584 | 21751 ft | 376 kts | 197° |
| 2026-05-05 21:53 | 31.96106 | -97.22929 | 21993 ft | 379 kts | 197° |
| 2026-05-05 21:54 | 31.93469 | -97.23280 | 22292 ft | 382 kts | 197° |
| 2026-05-05 21:54 | 31.90799 | -97.23637 | 22524 ft | 385 kts | 197° |
| 2026-05-05 21:54 | 31.88079 | -97.23998 | 22857 ft | 386 kts | 197° |
| 2026-05-05 21:54 | 31.85417 | -97.24352 | 23163 ft | 388 kts | 197° |
| 2026-05-05 21:55 | 31.82717 | -97.24712 | 23450 ft | 390 kts | 197° |
| 2026-05-05 21:55 | 31.80028 | -97.25069 | 23746 ft | 391 kts | 197° |
| 2026-05-05 21:55 | 31.77297 | -97.25433 | 23982 ft | 394 kts | 197° |
| 2026-05-05 21:55 | 31.74566 | -97.25795 | 24271 ft | 395 kts | 197° |
| 2026-05-05 21:56 | 31.71814 | -97.26160 | 24526 ft | 398 kts | 197° |
| 2026-05-05 21:56 | 31.69087 | -97.26522 | 24758 ft | 400 kts | 197° |
| 2026-05-05 21:56 | 31.66343 | -97.26973 | 25058 ft | 390 kts | 206° |
| 2026-05-05 21:56 | 31.63828 | -97.28041 | 25292 ft | 383 kts | 211° |
| 2026-05-05 21:57 | 31.61352 | -97.29202 | 25573 ft | 383 kts | 211° |
| 2026-05-05 21:57 | 31.58865 | -97.30373 | 25791 ft | 385 kts | 211° |
| 2026-05-05 21:57 | 31.56395 | -97.31537 | 26007 ft | 387 kts | 211° |
| 2026-05-05 21:57 | 31.53881 | -97.32721 | 26234 ft | 388 kts | 211° |
| 2026-05-05 21:58 | 31.51366 | -97.33906 | 26455 ft | 390 kts | 212° |
| 2026-05-05 21:58 | 31.48847 | -97.35091 | 26724 ft | 389 kts | 212° |
| 2026-05-05 21:58 | 31.46347 | -97.36267 | 26957 ft | 390 kts | 212° |
| 2026-05-05 21:58 | 31.43835 | -97.37448 | 27141 ft | 392 kts | 212° |
| 2026-05-05 21:59 | 31.41283 | -97.38648 | 27298 ft | 395 kts | 212° |
| 2026-05-05 21:59 | 31.38724 | -97.39849 | 27489 ft | 396 kts | 212° |
| 2026-05-05 21:59 | 31.36180 | -97.41043 | 27729 ft | 396 kts | 212° |
| 2026-05-05 21:59 | 31.33594 | -97.42255 | 27918 ft | 397 kts | 212° |
| 2026-05-05 22:00 | 31.31032 | -97.43457 | 28067 ft | 399 kts | 212° |
| 2026-05-05 22:00 | 31.28466 | -97.44659 | 28279 ft | 399 kts | 211° |
| 2026-05-05 22:00 | 31.25888 | -97.45866 | 28493 ft | 400 kts | 212° |
| 2026-05-05 22:00 | 31.23275 | -97.47089 | 28655 ft | 401 kts | 212° |
| 2026-05-05 22:01 | 31.20684 | -97.48300 | 28854 ft | 401 kts | 212° |
| 2026-05-05 22:01 | 31.18085 | -97.49515 | 29004 ft | 402 kts | 212° |
| 2026-05-05 22:01 | 31.15496 | -97.50724 | 29164 ft | 404 kts | 212° |
| 2026-05-05 22:01 | 31.12894 | -97.51939 | 29341 ft | 404 kts | 212° |
| 2026-05-05 22:02 | 31.10293 | -97.53152 | 29522 ft | 405 kts | 212° |
| 2026-05-05 22:02 | 31.07657 | -97.54381 | 29674 ft | 406 kts | 212° |
| 2026-05-05 22:02 | 31.05033 | -97.55603 | 29842 ft | 407 kts | 212° |
| 2026-05-05 22:02 | 31.02407 | -97.56826 | 29994 ft | 408 kts | 212° |
| 2026-05-05 22:03 | 30.99757 | -97.58059 | 30171 ft | 408 kts | 212° |
| 2026-05-05 22:03 | 30.97108 | -97.59292 | 30311 ft | 409 kts | 212° |
| 2026-05-05 22:03 | 30.94464 | -97.60520 | 30451 ft | 410 kts | 212° |
| 2026-05-05 22:03 | 30.91814 | -97.61752 | 30618 ft | 410 kts | 212° |
| 2026-05-05 22:04 | 30.89150 | -97.62987 | 30754 ft | 411 kts | 212° |
| 2026-05-05 22:04 | 30.86492 | -97.64221 | 30935 ft | 410 kts | 212° |
| 2026-05-05 22:04 | 30.83852 | -97.65445 | 31117 ft | 410 kts | 211° |
| 2026-05-05 22:04 | 30.81219 | -97.66666 | 31245 ft | 412 kts | 211° |
| 2026-05-05 22:05 | 30.78534 | -97.67909 | 31380 ft | 413 kts | 211° |
| 2026-05-05 22:05 | 30.75875 | -97.69141 | 31496 ft | 414 kts | 211° |
| 2026-05-05 22:05 | 30.73202 | -97.70377 | 31612 ft | 416 kts | 211° |
| 2026-05-05 22:05 | 30.70508 | -97.71622 | 31762 ft | 416 kts | 211° |
| 2026-05-05 22:06 | 30.67792 | -97.72877 | 31946 ft | 415 kts | 211° |
| 2026-05-05 22:06 | 30.65128 | -97.74107 | 32049 ft | 416 kts | 211° |
| 2026-05-05 22:06 | 30.62425 | -97.75356 | 32142 ft | 417 kts | 211° |
| 2026-05-05 22:07 | 30.57084 | -97.78018 | 32323 ft | 410 kts | 218° |
| 2026-05-05 22:07 | 30.54703 | -97.79758 | 32432 ft | 407 kts | 220° |
| 2026-05-05 22:07 | 30.52307 | -97.81542 | 32591 ft | 406 kts | 220° |
| 2026-05-05 22:07 | 30.49948 | -97.83294 | 32731 ft | 406 kts | 220° |
| 2026-05-05 22:08 | 30.47558 | -97.85068 | 32832 ft | 406 kts | 220° |
| 2026-05-05 22:08 | 30.45177 | -97.86833 | 33019 ft | 404 kts | 220° |
| 2026-05-05 22:08 | 30.42826 | -97.88576 | 33132 ft | 404 kts | 220° |
| 2026-05-05 22:09 | 30.38074 | -97.92094 | 33303 ft | 406 kts | 220° |
| 2026-05-05 22:09 | 30.33314 | -97.95615 | 33547 ft | 405 kts | 220° |
| 2026-05-05 22:09 | 30.30967 | -97.97349 | 33692 ft | 404 kts | 220° |
| 2026-05-05 22:10 | 30.28578 | -97.99114 | 33768 ft | 405 kts | 220° |
| 2026-05-05 22:10 | 30.26206 | -98.00864 | 33882 ft | 405 kts | 220° |
| 2026-05-05 22:10 | 30.23832 | -98.02615 | 33989 ft | 405 kts | 220° |
| 2026-05-05 22:10 | 30.21448 | -98.04374 | 34094 ft | 405 kts | 220° |
| 2026-05-05 22:11 | 30.19073 | -98.06123 | 34270 ft | 403 kts | 220° |
| 2026-05-05 22:11 | 30.16717 | -98.07857 | 34383 ft | 403 kts | 220° |
| 2026-05-05 22:11 | 30.14375 | -98.09581 | 34478 ft | 403 kts | 220° |
| 2026-05-05 22:11 | 30.11985 | -98.11339 | 34586 ft | 403 kts | 220° |
| 2026-05-05 22:12 | 30.09619 | -98.13077 | 34692 ft | 403 kts | 220° |
| 2026-05-05 22:12 | 30.04921 | -98.16528 | 34876 ft | 403 kts | 220° |
| 2026-05-05 22:13 | 30.00170 | -98.20014 | 35012 ft | 404 kts | 220° |
| 2026-05-05 22:13 | 29.95406 | -98.23505 | 35169 ft | 405 kts | 220° |
| 2026-05-05 22:13 | 29.93056 | -98.25226 | 35303 ft | 404 kts | 220° |
| 2026-05-05 22:14 | 29.90686 | -98.26959 | 35411 ft | 403 kts | 220° |
| 2026-05-05 22:14 | 29.88321 | -98.28689 | 35514 ft | 403 kts | 220° |
| 2026-05-05 22:14 | 29.85936 | -98.30433 | 35569 ft | 404 kts | 220° |
| 2026-05-05 22:15 | 29.81186 | -98.33901 | 35698 ft | 405 kts | 220° |
| 2026-05-05 22:15 | 29.76429 | -98.37371 | 35881 ft | 405 kts | 220° |
| 2026-05-05 22:16 | 29.71683 | -98.40829 | 36044 ft | 405 kts | 220° |
| 2026-05-05 22:16 | 29.69389 | -98.42498 | 36163 ft | 404 kts | 220° |
| 2026-05-05 22:16 | 29.66997 | -98.44239 | 36204 ft | 405 kts | 220° |
| 2026-05-05 22:17 | 29.61847 | -98.47102 | 36301 ft | 421 kts | 207° |
| 2026-05-05 22:17 | 29.56270 | -98.49153 | 36449 ft | 420 kts | 207° |
| 2026-05-05 22:18 | 29.50703 | -98.51217 | 36553 ft | 421 kts | 207° |
| 2026-05-05 22:18 | 29.45142 | -98.53278 | 36598 ft | 423 kts | 207° |
| 2026-05-05 22:19 | 29.39499 | -98.55367 | 36676 ft | 424 kts | 207° |
| 2026-05-05 22:19 | 29.33914 | -98.57433 | 36860 ft | 422 kts | 207° |
| 2026-05-05 22:20 | 29.28317 | -98.59500 | 37008 ft | 421 kts | 207° |
| 2026-05-05 22:20 | 29.22745 | -98.61556 | 37076 ft | 422 kts | 207° |
| 2026-05-05 22:21 | 29.17149 | -98.63618 | 37124 ft | 423 kts | 207° |
| 2026-05-05 22:21 | 29.11540 | -98.65683 | 37208 ft | 424 kts | 206° |
| 2026-05-05 22:22 | 29.05942 | -98.67742 | 37371 ft | 424 kts | 206° |
| 2026-05-05 22:22 | 29.03110 | -98.68781 | 37488 ft | 423 kts | 206° |
| 2026-05-05 22:22 | 29.00305 | -98.69812 | 37590 ft | 423 kts | 206° |
| 2026-05-05 22:23 | 28.94721 | -98.71860 | 37694 ft | 424 kts | 206° |
| 2026-05-05 22:23 | 28.89136 | -98.73906 | 37755 ft | 417 kts | 206° |
| 2026-05-05 22:24 | 28.83591 | -98.75937 | 37746 ft | 421 kts | 206° |
| 2026-05-05 22:24 | 28.77983 | -98.77987 | 37744 ft | 423 kts | 206° |
| 2026-05-05 22:25 | 28.72388 | -98.80156 | 37737 ft | 419 kts | 212° |
| 2026-05-05 22:25 | 28.67177 | -98.83034 | 37737 ft | 417 kts | 213° |
| 2026-05-05 22:26 | 28.61951 | -98.85926 | 37739 ft | 418 kts | 213° |
| 2026-05-05 22:26 | 28.56708 | -98.88821 | 37728 ft | 421 kts | 213° |
| 2026-05-05 22:27 | 28.51473 | -98.91709 | 37728 ft | 420 kts | 213° |
| 2026-05-05 22:27 | 28.46219 | -98.94604 | 37727 ft | 419 kts | 213° |
| 2026-05-05 22:28 | 28.40966 | -98.97495 | 37730 ft | 421 kts | 213° |
| 2026-05-05 22:28 | 28.35673 | -99.00405 | 37718 ft | 420 kts | 213° |
| 2026-05-05 22:29 | 28.30396 | -99.03303 | 37711 ft | 420 kts | 213° |
| 2026-05-05 22:29 | 28.25134 | -99.06190 | 37718 ft | 421 kts | 213° |
| 2026-05-05 22:30 | 28.19865 | -99.09077 | 37709 ft | 423 kts | 213° |
| 2026-05-05 22:30 | 28.14618 | -99.11949 | 37707 ft | 423 kts | 213° |
| 2026-05-05 22:31 | 28.09330 | -99.14840 | 37705 ft | 423 kts | 213° |
| 2026-05-05 22:31 | 28.04021 | -99.17740 | 37703 ft | 423 kts | 213° |
| 2026-05-05 22:32 | 27.98741 | -99.20620 | 37697 ft | 422 kts | 212° |
| 2026-05-05 22:32 | 27.93409 | -99.23526 | 37696 ft | 424 kts | 212° |
| 2026-05-05 22:33 | 27.88079 | -99.26428 | 37700 ft | 424 kts | 212° |
| 2026-05-05 22:33 | 27.82774 | -99.29313 | 37704 ft | 425 kts | 212° |
| 2026-05-05 22:34 | 27.77395 | -99.32234 | 37713 ft | 426 kts | 212° |
| 2026-05-05 22:34 | 27.74744 | -99.33674 | 37486 ft | 429 kts | 212° |
| 2026-05-05 22:34 | 27.72050 | -99.35134 | 37021 ft | 425 kts | 212° |
| 2026-05-05 22:34 | 27.69378 | -99.36582 | 36538 ft | 423 kts | 212° |
| 2026-05-05 22:35 | 27.66767 | -99.37997 | 36084 ft | 420 kts | 212° |
| 2026-05-05 22:35 | 27.64114 | -99.39435 | 35616 ft | 420 kts | 211° |
| 2026-05-05 22:35 | 27.61462 | -99.40870 | 35145 ft | 419 kts | 211° |
| 2026-05-05 22:35 | 27.58849 | -99.42283 | 34679 ft | 414 kts | 211° |
| 2026-05-05 22:36 | 27.56272 | -99.43675 | 34225 ft | 411 kts | 212° |
| 2026-05-05 22:36 | 27.53702 | -99.45064 | 33769 ft | 406 kts | 211° |
| 2026-05-05 22:36 | 27.51176 | -99.46429 | 33321 ft | 403 kts | 211° |
| 2026-05-05 22:36 | 27.48651 | -99.47792 | 32878 ft | 398 kts | 211° |
| 2026-05-05 22:37 | 27.46168 | -99.49132 | 32458 ft | 396 kts | 211° |
| 2026-05-05 22:37 | 27.43671 | -99.50479 | 32023 ft | 393 kts | 211° |
| 2026-05-05 22:37 | 27.41217 | -99.51802 | 31588 ft | 390 kts | 211° |
| 2026-05-05 22:37 | 27.38783 | -99.53113 | 31156 ft | 387 kts | 211° |
| 2026-05-05 22:38 | 27.36363 | -99.54416 | 30732 ft | 387 kts | 211° |
| 2026-05-05 22:38 | 27.33965 | -99.55707 | 30306 ft | 382 kts | 211° |
| 2026-05-05 22:38 | 27.31556 | -99.57003 | 29880 ft | 381 kts | 211° |
| 2026-05-05 22:38 | 27.29196 | -99.58272 | 29465 ft | 378 kts | 211° |
| 2026-05-05 22:39 | 27.26813 | -99.59553 | 29044 ft | 375 kts | 211° |
| 2026-05-05 22:39 | 27.24465 | -99.60815 | 28622 ft | 375 kts | 211° |
| 2026-05-05 22:39 | 27.22103 | -99.62083 | 28203 ft | 373 kts | 211° |
| 2026-05-05 22:39 | 27.19769 | -99.63335 | 27790 ft | 370 kts | 211° |
| 2026-05-05 22:40 | 27.17462 | -99.64573 | 27379 ft | 368 kts | 211° |
| 2026-05-05 22:40 | 27.15146 | -99.65815 | 26982 ft | 368 kts | 210° |
| 2026-05-05 22:40 | 27.12828 | -99.67057 | 26576 ft | 366 kts | 210° |
| 2026-05-05 22:40 | 27.10559 | -99.68273 | 26176 ft | 365 kts | 210° |
| 2026-05-05 22:41 | 27.08282 | -99.69492 | 25773 ft | 363 kts | 210° |
| 2026-05-05 22:41 | 27.06002 | -99.70712 | 25379 ft | 360 kts | 210° |
| 2026-05-05 22:41 | 27.03749 | -99.71918 | 25196 ft | 360 kts | 210° |
| 2026-05-05 22:41 | 27.01485 | -99.73128 | 24800 ft | 359 kts | 210° |
| 2026-05-05 22:42 | 26.99200 | -99.74349 | 24400 ft | 358 kts | 210° |
| 2026-05-05 22:42 | 26.96986 | -99.75532 | 24007 ft | 355 kts | 210° |
| 2026-05-05 22:42 | 26.94733 | -99.76736 | 23606 ft | 356 kts | 210° |
| 2026-05-05 22:42 | 26.92521 | -99.77917 | 23216 ft | 354 kts | 210° |
| 2026-05-05 22:43 | 26.90294 | -99.79105 | 22822 ft | 351 kts | 210° |
| 2026-05-05 22:43 | 26.88068 | -99.80292 | 22437 ft | 351 kts | 210° |
| 2026-05-05 22:43 | 26.85875 | -99.81462 | 22056 ft | 349 kts | 210° |
| 2026-05-05 22:43 | 26.83651 | -99.82647 | 21666 ft | 350 kts | 210° |
| 2026-05-05 22:44 | 26.81462 | -99.83813 | 21282 ft | 347 kts | 210° |
| 2026-05-05 22:44 | 26.79278 | -99.84975 | 20897 ft | 346 kts | 210° |
| 2026-05-05 22:44 | 26.77115 | -99.86127 | 20524 ft | 344 kts | 210° |
| 2026-05-05 22:44 | 26.74972 | -99.87266 | 20147 ft | 342 kts | 210° |
| 2026-05-05 22:45 | 26.72821 | -99.88410 | 19770 ft | 342 kts | 210° |
| 2026-05-05 22:45 | 26.70671 | -99.89553 | 19393 ft | 340 kts | 209° |
| 2026-05-05 22:45 | 26.68540 | -99.90685 | 19012 ft | 339 kts | 209° |
| 2026-05-05 22:45 | 26.66414 | -99.91814 | 18638 ft | 339 kts | 209° |
| 2026-05-05 22:46 | 26.64304 | -99.92934 | 18268 ft | 337 kts | 209° |
| 2026-05-05 22:46 | 26.62197 | -99.94052 | 17891 ft | 335 kts | 209° |
| 2026-05-05 22:46 | 26.60083 | -99.95174 | 17521 ft | 334 kts | 209° |
| 2026-05-05 22:46 | 26.58001 | -99.96278 | 17165 ft | 332 kts | 209° |
| 2026-05-05 22:47 | 26.55916 | -99.97382 | 16799 ft | 330 kts | 209° |
| 2026-05-05 22:47 | 26.53859 | -99.98472 | 16436 ft | 329 kts | 208° |
| 2026-05-05 22:47 | 26.51791 | -99.99567 | 16077 ft | 326 kts | 208° |
| 2026-05-05 22:47 | 26.49750 | -100.00648 | 15724 ft | 324 kts | 208° |
| 2026-05-05 22:48 | 26.47726 | -100.01719 | 15382 ft | 322 kts | 208° |
| 2026-05-05 22:48 | 26.45694 | -100.02793 | 15038 ft | 322 kts | 208° |
| 2026-05-05 22:48 | 26.43680 | -100.03858 | 14689 ft | 320 kts | 208° |
| 2026-05-05 22:48 | 26.41661 | -100.04926 | 14347 ft | 318 kts | 208° |
| 2026-05-05 22:49 | 26.39660 | -100.05982 | 14006 ft | 316 kts | 208° |
| 2026-05-05 22:49 | 26.37683 | -100.07027 | 13670 ft | 316 kts | 208° |
| 2026-05-05 22:49 | 26.35687 | -100.08081 | 13333 ft | 316 kts | 207° |
| 2026-05-05 22:49 | 26.33705 | -100.09126 | 12993 ft | 315 kts | 207° |
| 2026-05-05 22:50 | 26.31721 | -100.10173 | 12655 ft | 314 kts | 207° |
| 2026-05-05 22:50 | 26.29756 | -100.11210 | 12314 ft | 313 kts | 207° |
| 2026-05-05 22:50 | 26.27792 | -100.12244 | 11981 ft | 313 kts | 207° |
| 2026-05-05 22:50 | 26.25810 | -100.13290 | 11631 ft | 311 kts | 207° |
| 2026-05-05 22:51 | 26.23887 | -100.14301 | 11285 ft | 307 kts | 207° |
| 2026-05-05 22:51 | 26.21966 | -100.15313 | 10952 ft | 303 kts | 207° |
| 2026-05-05 22:51 | 26.20062 | -100.16315 | 10614 ft | 299 kts | 207° |
| 2026-05-05 22:51 | 26.18209 | -100.17290 | 10268 ft | 294 kts | 207° |
| 2026-05-05 22:52 | 26.16365 | -100.18259 | 9946 ft | 291 kts | 207° |
| 2026-05-05 22:52 | 26.14534 | -100.19222 | 9615 ft | 289 kts | 207° |
| 2026-05-05 22:52 | 26.12725 | -100.20173 | 9300 ft | 289 kts | 207° |
| 2026-05-05 22:52 | 26.10892 | -100.21137 | 8973 ft | 289 kts | 207° |
| 2026-05-05 22:53 | 26.09088 | -100.22085 | 8647 ft | 289 kts | 207° |
| 2026-05-05 22:53 | 26.07268 | -100.23039 | 8316 ft | 288 kts | 207° |
| 2026-05-05 22:53 | 26.05451 | -100.23994 | 7989 ft | 289 kts | 206° |
| 2026-05-05 22:53 | 26.03633 | -100.24947 | 7661 ft | 288 kts | 206° |
| 2026-05-05 22:54 | 26.01847 | -100.25884 | 7327 ft | 280 kts | 206° |
| 2026-05-05 22:54 | 26.00114 | -100.26794 | 7013 ft | 272 kts | 205° |
| 2026-05-05 22:54 | 25.98407 | -100.27688 | 6711 ft | 265 kts | 204° |
| 2026-05-05 22:54 | 25.96761 | -100.28550 | 6424 ft | 258 kts | 204° |
| 2026-05-05 22:55 | 25.95157 | -100.29390 | 6144 ft | 251 kts | 204° |
| 2026-05-05 22:55 | 25.93607 | -100.30202 | 5875 ft | 246 kts | 204° |
| 2026-05-05 22:55 | 25.92057 | -100.31013 | 5604 ft | 240 kts | 204° |
| 2026-05-05 22:55 | 25.90494 | -100.31367 | 5359 ft | 229 kts | 167° |
| 2026-05-05 22:56 | 25.89154 | -100.30576 | 5116 ft | 217 kts | 129° |
| 2026-05-05 22:56 | 25.88239 | -100.29250 | 4801 ft | 215 kts | 123° |
| 2026-05-05 22:56 | 25.87408 | -100.27902 | 4522 ft | 212 kts | 121° |
| 2026-05-05 22:56 | 25.86547 | -100.26607 | 4255 ft | 210 kts | 139° |
| 2026-05-05 22:57 | 25.85349 | -100.25693 | 4031 ft | 206 kts | 146° |
| 2026-05-05 22:57 | 25.84154 | -100.24874 | 3881 ft | 196 kts | 146° |
| 2026-05-05 22:57 | 25.82974 | -100.24130 | 3724 ft | 195 kts | 163° |
| 2026-05-05 22:57 | 25.81639 | -100.24254 | 3763 ft | 203 kts | 209° |
| 2026-05-05 22:58 | 25.80592 | -100.25354 | 3762 ft | 210 kts | 231° |
| 2026-05-05 22:58 | 25.80041 | -100.26826 | 3732 ft | 211 kts | 274° |
| 2026-05-05 22:58 | 25.80456 | -100.28360 | 3756 ft | 209 kts | 300° |
| 2026-05-05 22:58 | 25.81150 | -100.29781 | 3717 ft | 209 kts | 301° |
| 2026-05-05 22:59 | 25.82081 | -100.30944 | 3729 ft | 204 kts | 339° |
| 2026-05-05 22:59 | 25.83448 | -100.31082 | 3768 ft | 197 kts | 24° |
| 2026-05-05 22:59 | 25.84441 | -100.30128 | 3769 ft | 194 kts | 70° |
| 2026-05-05 22:59 | 25.84464 | -100.28665 | 3771 ft | 195 kts | 116° |
| 2026-05-05 23:00 | 25.82607 | -100.26448 | 3555 ft | 198 kts | 129° |
| 2026-05-05 23:00 | 25.81878 | -100.25185 | 3300 ft | 191 kts | 97° |
| 2026-05-05 23:00 | 25.82169 | -100.23840 | 3532 ft | 186 kts | 59° |
| 2026-05-05 23:01 | 25.82854 | -100.22575 | 3424 ft | 196 kts | 63° |
| 2026-05-05 23:01 | 25.83220 | -100.21174 | 3149 ft | 192 kts | 101° |
| 2026-05-05 23:01 | 25.82724 | -100.19830 | 2933 ft | 184 kts | 117° |
| 2026-05-05 23:01 | 25.82112 | -100.18619 | 2616 ft | 173 kts | 118° |
| 2026-05-05 23:02 | 25.81538 | -100.17517 | 2368 ft | 159 kts | 119° |
| 2026-05-05 23:02 | 25.81005 | -100.16515 | 2191 ft | 140 kts | 119° |
| 2026-05-05 23:02 | 25.80522 | -100.15614 | 1902 ft | 131 kts | 119° |
| 2026-05-05 23:02 | 25.80081 | -100.14784 | 1709 ft | 121 kts | 117° |
| 2026-05-05 23:03 | 25.79667 | -100.13979 | 1515 ft | 124 kts | 117° |
| 2026-05-05 23:03 | 25.79222 | -100.13138 | 1488 ft | 122 kts | 119° |
| 2026-05-05 23:03 | 25.78730 | -100.12286 | 1431 ft | 130 kts | 118° |
| 2026-05-05 23:03 | 25.78269 | -100.11450 | 1283 ft | 122 kts | 120° |
| 2026-05-05 23:04 | 25.77906 | -100.10786 | 1269 ft | 75 kts | 122° |
| 2026-05-05 23:04 | 25.77709 | -100.10429 | 1262 ft | 32 kts | 122° |
| 2026-05-05 23:04 | 25.77590 | -100.10217 | 1258 ft | 38 kts | 121° |
| 2026-05-05 23:04 | 25.77454 | -100.09958 | 1253 ft | 38 kts | 120° |
| 2026-05-05 23:05 | 25.77319 | -100.09724 | 1250 ft | 19 kts | 125° |
| 2026-05-05 23:05 | 25.77237 | -100.09709 | 1250 ft | 13 kts | 209° |
| 2026-05-05 23:05 | 25.77160 | -100.09766 | 1250 ft | 14 kts | 236° |
| 2026-05-05 23:05 | 25.77182 | -100.09875 | 1251 ft | 16 kts | 302° |
| 2026-05-05 23:06 | 25.77243 | -100.09985 | 1253 ft | 16 kts | 300° |
| 2026-05-05 23:06 | 25.77308 | -100.10105 | 1255 ft | 21 kts | 301° |
| 2026-05-05 23:06 | 25.77384 | -100.10242 | 1258 ft | 20 kts | 302° |
| 2026-05-05 23:06 | 25.77455 | -100.10375 | 1261 ft | 20 kts | 302° |
| 2026-05-05 23:07 | 25.77529 | -100.10510 | 1263 ft | 20 kts | 301° |
| 2026-05-05 23:07 | 25.77602 | -100.10640 | 1266 ft | 19 kts | 302° |
| 2026-05-05 23:07 | 25.77671 | -100.10767 | 1268 ft | 19 kts | 300° |
| 2026-05-05 23:07 | 25.77742 | -100.10892 | 1271 ft | 19 kts | 302° |
| 2026-05-05 23:08 | 25.77813 | -100.11024 | 1273 ft | 20 kts | 301° |
| 2026-05-05 23:08 | 25.77884 | -100.11151 | 1276 ft | 11 kts | 302° |
| 2026-05-05 23:08 | 25.77912 | -100.11202 | 1277 ft | 6 kts | 302° |
| 2026-05-05 23:08 | 25.77910 | -100.11237 | 1279 ft | 4 kts | 220° |
| 2026-05-05 23:09 | 25.77882 | -100.11265 | 1280 ft | 5 kts | 217° |
| 2026-05-05 23:09 | 25.77855 | -100.11283 | 1280 ft | 3 kts | 210° |
| 2026-05-05 23:09 | 25.77852 | -100.11285 | 1280 ft | 0 kts | 211° |